フォール=ド=フランス の空港の天気 - METARとTAF

マルティニーク・エメ・セゼール国際空港 ( TFFF / FDF ) - マルティニーク フォール=ド=フランス
飛行場実況気象(Metar)
観測時間08/04 15:30 AST (08/04 19:30 UTC)
風向・風速東 6m/s
視程10km以上
天気現象
全天の8割程度の雲 雲底高度 1040m
全天の8割程度の雲 雲底高度 1250m
気温31℃
湿度66%
気圧1015hPa
METARTFFF 041930Z AUTO 09012KT 9999 BKN034 BKN041 31/24 Q1015 NOSIG
過去の天気等 Google飛行場航空写真 Wunderground天気予報

過去48時間のMETAR

飛行場予報(TAF)
発表時間: 8/04 12:00 AST (8/04 16:00 UTC)
予報対象時間: 4日14時 AST ~ 5日14時 AST
風向・風速東南東 7m/s
視程10km以上
全天の4割程度の雲 雲底高度 760m
全天の4割程度の雲 雲底高度 1370m
4日22時 AST ~ 5日6時 AST に一時的に
風向・風速不定 2m/s
5日0時 AST ~ 5日12時 AST に 確率 40% で一時的に
視程3000m
天気現象しゅう雨
全天の8割程度の塔状積雲 雲底高度 550m
TAF TFFF 041600Z 0418/0518 11013KT 9999 SCT025 SCT045
TEMPO 0502/0510 VRB03KT
PROB40 TEMPO 0504/0516 3000 SHRA BKN018TCU